Time;durP1;ratioP1;P1;durP2;ratioP2;P2;SDS_P1;SDS_P2;PMS_P1;PMS_P2;Temp;Humidity;BMP_temperature;BMP_pressure;BME280_temperature;BME280_humidity;BME280_pressure;Samples;Min_cycle;Max_cycle;Signal;HPM_P1;HPM_P2
2023/07/07 00:02:34;;;;;;;4.40;3.00;;;;;17.40;97246.00;;;;4991458;28;20203;-85
2023/07/07 00:05:23;;;;;;;4.17;2.60;;;;;17.30;97257.00;;;;4993368;28;20244;-85
2023/07/07 00:08:12;;;;;;;4.50;3.00;;;;;17.30;97253.00;;;;4993499;28;20206;-85
2023/07/07 00:11:01;;;;;;;4.63;3.23;;;;;17.30;97255.00;;;;4991940;28;20214;-85
2023/07/07 00:13:52;;;;;;;3.73;2.90;;;;;17.40;97265.00;;;;4992055;28;20195;-84
2023/07/07 00:16:43;;;;;;;8.07;2.77;;;;;17.40;97258.00;;;;4993102;28;20752;-85
2023/07/07 00:19:34;;;;;;;5.17;2.87;;;;;17.40;97256.00;;;;4992739;28;20222;-84
2023/07/07 00:22:23;;;;;;;9.87;3.83;;;;;17.30;97255.00;;;;4993491;28;20203;-85
2023/07/07 00:25:12;;;;;;;7.60;3.93;;;;;17.10;97265.00;;;;4995913;28;20218;-83
2023/07/07 00:28:01;;;;;;;3.87;3.03;;;;;16.90;97258.00;;;;4991032;28;20198;-84
2023/07/07 00:30:50;;;;;;;5.83;3.23;;;;;17.10;97261.00;;;;4993337;28;20206;-85
2023/07/07 00:33:41;;;;;;;4.13;2.77;;;;;17.20;97256.00;;;;4986383;28;20733;-85
2023/07/07 00:36:30;;;;;;;5.63;3.33;;;;;17.30;97262.00;;;;4992751;28;20210;-85
2023/07/07 00:39:19;;;;;;;4.83;3.57;;;;;17.20;97256.00;;;;4993127;28;20233;-85
2023/07/07 00:42:10;;;;;;;4.80;2.97;;;;;17.20;97255.00;;;;4993747;28;20215;-85
2023/07/07 00:45:14;;;;;;;4.53;2.90;;;;;16.90;97258.00;;;;4987108;28;20273;-85
2023/07/07 00:48:06;;;;;;;6.40;3.93;;;;;16.90;97245.00;;;;4993708;28;20210;-84
2023/07/07 00:50:58;;;;;;;3.77;2.70;;;;;17.00;97257.00;;;;4988949;28;20207;-84
2023/07/07 00:53:50;;;;;;;4.07;3.43;;;;;17.00;97258.00;;;;4990679;28;20815;-84
2023/07/07 00:56:42;;;;;;;6.37;3.60;;;;;17.10;97255.00;;;;4992615;28;20195;-84
2023/07/07 00:59:35;;;;;;;5.87;3.10;;;;;17.10;97252.00;;;;4992534;28;20713;-84
2023/07/07 01:02:28;;;;;;;6.03;3.73;;;;;17.00;97245.00;;;;4987337;28;20198;-85
2023/07/07 01:05:17;;;;;;;8.13;4.07;;;;;17.10;97256.00;;;;4993642;28;20693;-84
2023/07/07 01:08:07;;;;;;;4.57;3.47;;;;;17.10;97256.00;;;;4993863;28;20599;-85
2023/07/07 01:10:57;;;;;;;6.27;3.60;;;;;17.10;97253.00;;;;4992939;28;20681;-85
2023/07/07 01:13:46;;;;;;;3.63;2.97;;;;;17.10;97248.00;;;;4991763;28;20206;-85
2023/07/07 01:16:43;;;;;;;3.90;3.43;;;;;17.10;97249.00;;;;4990588;28;20693;-85
2023/07/07 01:19:59;;;;;;;4.43;3.97;;;;;17.10;97255.00;;;;4990584;28;20230;-84
2023/07/07 01:23:06;;;;;;;5.43;3.70;;;;;17.10;97256.00;;;;4992869;28;20202;-85
2023/07/07 01:26:18;;;;;;;5.57;4.00;;;;;17.10;97259.00;;;;4987691;28;20882;-86
2023/07/07 01:29:39;;;;;;;5.00;3.83;;;;;17.10;97259.00;;;;4989631;28;20588;-86
2023/07/07 01:32:31;;;;;;;8.17;3.53;;;;;17.10;97262.00;;;;4990349;28;20210;-85
2023/07/07 01:35:22;;;;;;;4.03;3.30;;;;;17.10;97257.00;;;;4989058;28;20814;-85
2023/07/07 01:38:34;;;;;;;10.03;3.57;;;;;17.00;97242.00;;;;4988994;28;20207;-85
2023/07/07 01:41:29;;;;;;;4.87;4.13;;;;;17.10;97252.00;;;;4985926;28;20206;-85
2023/07/07 01:44:22;;;;;;;7.35;3.90;;;;;17.00;97255.00;;;;4988001;28;20233;-85
2023/07/07 01:47:14;;;;;;;7.57;3.87;;;;;17.00;97254.00;;;;4992825;28;20720;-85
2023/07/07 01:50:08;;;;;;;5.60;3.80;;;;;17.00;97253.00;;;;4988194;28;20222;-85
2023/07/07 01:53:00;;;;;;;4.13;3.40;;;;;17.10;97255.00;;;;4987460;28;20198;-84
2023/07/07 01:55:51;;;;;;;5.97;3.93;;;;;17.10;97258.00;;;;4992073;28;20198;-85
2023/07/07 01:58:41;;;;;;;7.27;3.37;;;;;17.10;97259.00;;;;4989429;28;20753;-83
2023/07/07 02:01:31;;;;;;;3.83;3.10;;;;;17.10;97264.00;;;;4989211;28;20197;-84
2023/07/07 02:04:20;;;;;;;4.93;3.53;;;;;17.00;97255.00;;;;4989605;28;20224;-84
2023/07/07 02:07:10;;;;;;;6.10;3.57;;;;;17.00;97262.00;;;;4990245;28;20198;-85
2023/07/07 02:09:59;;;;;;;6.07;3.70;;;;;17.20;97268.00;;;;4988258;28;20234;-84
2023/07/07 02:12:48;;;;;;;6.50;4.23;;;;;17.10;97262.00;;;;4984781;28;20211;-84
2023/07/07 02:15:38;;;;;;;3.87;3.43;;;;;16.90;97270.00;;;;4988016;28;20206;-84
2023/07/07 02:18:27;;;;;;;5.72;4.22;;;;;16.60;97268.00;;;;4987997;28;20414;-85
2023/07/07 02:21:17;;;;;;;4.87;4.10;;;;;16.80;97272.00;;;;4989205;28;20787;-83
2023/07/07 02:24:07;;;;;;;5.77;3.57;;;;;17.00;97272.00;;;;4989963;28;20437;-84
2023/07/07 02:26:56;;;;;;;7.23;3.63;;;;;17.10;97272.00;;;;4990797;28;20321;-84
2023/07/07 02:29:47;;;;;;;5.03;4.33;;;;;17.10;97268.00;;;;4985428;28;20226;-85
2023/07/07 02:32:36;;;;;;;4.67;3.17;;;;;17.20;97267.00;;;;4990084;28;20206;-85
2023/07/07 02:35:25;;;;;;;6.10;4.00;;;;;17.10;97270.00;;;;4984340;28;20199;-85
2023/07/07 02:38:14;;;;;;;6.20;3.67;;;;;17.10;97266.00;;;;4992005;28;20209;-84
2023/07/07 02:41:04;;;;;;;7.47;3.60;;;;;17.20;97270.00;;;;4981362;28;20209;-85
2023/07/07 02:43:53;;;;;;;6.50;5.80;;;;;17.20;97271.00;;;;4990289;28;20202;-85
2023/07/07 02:46:44;;;;;;;7.03;3.50;;;;;16.90;97265.00;;;;4989509;28;20203;-85
2023/07/07 02:49:33;;;;;;;5.57;3.60;;;;;17.00;97263.00;;;;4994192;28;20288;-85
2023/07/07 02:52:22;;;;;;;5.17;4.00;;;;;16.70;97280.00;;;;4987267;28;20208;-84
2023/07/07 02:55:11;;;;;;;9.77;4.00;;;;;16.90;97272.00;;;;4985946;28;20693;-85
2023/07/07 02:58:03;;;;;;;4.33;3.40;;;;;17.00;97280.00;;;;4984798;28;20205;-84
2023/07/07 03:00:52;;;;;;;7.23;3.83;;;;;17.10;97280.00;;;;4985417;28;20203;-86
2023/07/07 03:03:44;;;;;;;5.00;4.30;;;;;17.10;97269.00;;;;4989226;28;20276;-85
2023/07/07 03:06:33;;;;;;;14.07;4.10;;;;;17.10;97280.00;;;;4987736;28;20227;-85
2023/07/07 03:09:22;;;;;;;4.40;3.47;;;;;16.90;97291.00;;;;4988787;28;20613;-84
2023/07/07 03:12:11;;;;;;;5.47;3.57;;;;;16.80;97288.00;;;;4986363;28;20202;-84
2023/07/07 03:15:02;;;;;;;5.10;3.87;;;;;16.80;97290.00;;;;4990294;28;20203;-84
2023/07/07 03:17:51;;;;;;;7.13;3.67;;;;;16.60;97293.00;;;;4989420;28;20210;-84
2023/07/07 03:20:47;;;;;;;4.73;3.67;;;;;16.70;97300.00;;;;4989338;28;20201;-84
2023/07/07 03:23:38;;;;;;;4.63;4.03;;;;;16.80;97300.00;;;;4990059;28;20208;-85
2023/07/07 03:26:28;;;;;;;5.03;3.50;;;;;16.80;97298.00;;;;4991452;28;20226;-84
2023/07/07 03:29:17;;;;;;;4.77;3.37;;;;;16.90;97291.00;;;;4989236;28;20240;-84
2023/07/07 03:32:09;;;;;;;4.43;3.33;;;;;16.80;97310.00;;;;4988114;28;20214;-85
2023/07/07 03:34:58;;;;;;;8.17;4.20;;;;;16.90;97301.00;;;;4987831;28;20257;-84
2023/07/07 03:37:47;;;;;;;4.30;3.40;;;;;16.90;97305.00;;;;4985626;28;20203;-86
2023/07/07 03:40:36;;;;;;;10.87;3.80;;;;;17.00;97315.00;;;;4989022;28;20199;-86
2023/07/07 03:43:25;;;;;;;10.07;4.13;;;;;17.10;97321.00;;;;4990460;28;20670;-85
2023/07/07 03:46:15;;;;;;;6.13;3.73;;;;;17.20;97309.00;;;;4990498;28;20237;-86
2023/07/07 03:49:05;;;;;;;6.20;4.00;;;;;17.10;97317.00;;;;4991578;28;20613;-85
2023/07/07 03:51:54;;;;;;;5.57;4.20;;;;;17.20;97318.00;;;;4990435;28;20206;-86
2023/07/07 03:54:43;;;;;;;7.40;4.83;;;;;17.20;97313.00;;;;4982412;28;20217;-85
2023/07/07 03:57:32;;;;;;;5.33;4.00;;;;;17.30;97315.00;;;;4990268;28;20603;-86
2023/07/07 04:00:21;;;;;;;6.60;4.23;;;;;17.30;97319.00;;;;4990931;28;20227;-85
2023/07/07 04:03:10;;;;;;;5.80;4.67;;;;;17.40;97324.00;;;;4990062;28;20237;-85
2023/07/07 04:06:01;;;;;;;7.63;4.70;;;;;17.40;97320.00;;;;4992839;28;20236;-86
2023/07/07 04:08:50;;;;;;;5.40;4.80;;;;;17.50;97324.00;;;;4988331;28;20222;-86
2023/07/07 04:11:39;;;;;;;5.40;4.00;;;;;17.30;97324.00;;;;4990523;28;20198;-85
2023/07/07 04:14:29;;;;;;;5.90;3.30;;;;;17.00;97320.00;;;;4989668;28;20207;-84
2023/07/07 04:17:18;;;;;;;6.13;4.40;;;;;17.30;97337.00;;;;4990205;28;20207;-85
2023/07/07 04:20:08;;;;;;;4.57;3.13;;;;;17.20;97331.00;;;;4987973;28;20231;-85
2023/07/07 04:22:58;;;;;;;4.67;3.27;;;;;17.30;97337.00;;;;4988225;28;20210;-83
2023/07/07 04:25:47;;;;;;;8.30;3.03;;;;;17.30;97341.00;;;;4993714;28;20223;-84
2023/07/07 04:28:37;;;;;;;5.77;3.57;;;;;17.50;97339.00;;;;4989400;28;20721;-84
2023/07/07 04:31:28;;;;;;;4.80;3.03;;;;;17.40;97337.00;;;;4990075;28;20269;-85
2023/07/07 04:34:17;;;;;;;5.57;3.70;;;;;17.30;97347.00;;;;4990861;28;20261;-85
2023/07/07 04:37:06;;;;;;;4.17;3.50;;;;;17.20;97349.00;;;;4987273;28;20221;-85
2023/07/07 04:39:57;;;;;;;7.73;3.80;;;;;17.20;97350.00;;;;4989658;28;20230;-85
2023/07/07 04:42:47;;;;;;;4.40;3.37;;;;;17.20;97353.00;;;;4992657;28;20206;-86
2023/07/07 04:45:36;;;;;;;6.03;2.97;;;;;17.10;97356.00;;;;4991970;28;20218;-85
2023/07/07 04:48:25;;;;;;;6.13;3.27;;;;;17.50;97364.00;;;;4992765;28;20240;-86
2023/07/07 04:51:14;;;;;;;3.10;2.77;;;;;17.30;97355.00;;;;4990040;28;20665;-85
2023/07/07 04:54:04;;;;;;;5.20;3.63;;;;;17.00;97357.00;;;;4990523;28;20866;-85
2023/07/07 04:56:54;;;;;;;4.47;2.93;;;;;17.10;97356.00;;;;4986385;28;20698;-85
2023/07/07 04:59:44;;;;;;;4.47;3.13;;;;;17.20;97365.00;;;;4990540;28;20246;-85
2023/07/07 05:02:35;;;;;;;5.90;2.97;;;;;17.10;97368.00;;;;4982505;28;20198;-84
2023/07/07 05:05:24;;;;;;;5.40;3.20;;;;;17.40;97366.00;;;;4989072;28;20202;-85
2023/07/07 05:08:13;;;;;;;6.87;3.57;;;;;17.70;97377.00;;;;4988934;28;20199;-85
2023/07/07 05:11:02;;;;;;;11.03;3.53;;;;;17.80;97379.00;;;;4985018;28;20217;-85
2023/07/07 05:13:54;;;;;;;3.30;2.90;;;;;17.70;97384.00;;;;4989022;28;20211;-85
2023/07/07 05:16:43;;;;;;;5.50;3.83;;;;;17.80;97379.00;;;;4981640;28;20199;-86
2023/07/07 05:19:32;;;;;;;5.17;3.87;;;;;18.00;97383.00;;;;4987122;28;20218;-85
2023/07/07 05:22:22;;;;;;;5.77;4.50;;;;;18.20;97378.00;;;;4993448;28;20211;-87
2023/07/07 05:25:11;;;;;;;9.93;3.93;;;;;18.20;97390.00;;;;4989745;28;20678;-85
2023/07/07 05:28:00;;;;;;;5.27;4.23;;;;;18.30;97395.00;;;;4986432;28;20587;-86
2023/07/07 05:30:50;;;;;;;4.97;4.33;;;;;18.50;97398.00;;;;4987138;28;20213;-86
2023/07/07 05:33:40;;;;;;;10.03;3.97;;;;;18.40;97395.00;;;;4991283;28;20206;-85
2023/07/07 05:36:29;;;;;;;6.80;4.27;;;;;18.30;97399.00;;;;4989123;28;20202;-86
2023/07/07 05:39:18;;;;;;;4.03;3.10;;;;;18.30;97402.00;;;;4988560;28;20618;-86
2023/07/07 05:42:08;;;;;;;5.73;3.53;;;;;18.40;97408.00;;;;4985236;28;20214;-85
2023/07/07 05:44:57;;;;;;;5.70;3.30;;;;;18.60;97411.00;;;;4987469;28;20224;-86
2023/07/07 05:47:48;;;;;;;4.73;3.60;;;;;18.50;97403.00;;;;4990031;28;20327;-86
2023/07/07 05:50:38;;;;;;;4.37;2.87;;;;;18.20;97409.00;;;;4989300;28;20215;-86
2023/07/07 05:53:27;;;;;;;4.47;3.03;;;;;18.30;97411.00;;;;4989457;28;20217;-86
2023/07/07 05:56:19;;;;;;;4.47;3.30;;;;;18.60;97403.00;;;;4987394;28;20265;-86
2023/07/07 05:59:08;;;;;;;3.83;3.13;;;;;18.80;97409.00;;;;4989084;28;20614;-87
2023/07/07 06:01:57;;;;;;;4.13;2.87;;;;;18.50;97418.00;;;;4985530;28;20207;-88
2023/07/07 06:04:48;;;;;;;4.67;3.70;;;;;18.60;97409.00;;;;4984919;28;20198;-87
2023/07/07 06:07:37;;;;;;;4.37;3.87;;;;;18.40;97416.00;;;;4987303;28;20679;-88
2023/07/07 06:10:26;;;;;;;6.13;4.07;;;;;18.60;97422.00;;;;4990140;28;20253;-88
2023/07/07 06:13:17;;;;;;;3.13;2.87;;;;;19.10;97422.00;;;;4988965;28;20209;-88
2023/07/07 06:16:06;;;;;;;5.07;3.73;;;;;19.10;97426.00;;;;4989896;28;20285;-88
2023/07/07 06:18:56;;;;;;;5.93;3.60;;;;;19.20;97422.00;;;;4991658;28;20711;-88
2023/07/07 06:21:46;;;;;;;6.23;3.80;;;;;19.30;97430.00;;;;4991663;28;20199;-89
2023/07/07 06:24:35;;;;;;;5.03;3.83;;;;;19.40;97430.00;;;;4987212;28;20206;-87
2023/07/07 06:27:27;;;;;;;8.43;4.27;;;;;19.10;97432.00;;;;4988963;28;20226;-88
2023/07/07 06:30:16;;;;;;;5.73;3.43;;;;;19.20;97436.00;;;;4990600;28;20223;-88
2023/07/07 06:33:05;;;;;;;3.90;3.50;;;;;19.60;97434.00;;;;4989110;28;20209;-87
2023/07/07 06:35:55;;;;;;;5.90;3.90;;;;;19.70;97437.00;;;;4998614;28;20206;-88
2023/07/07 06:38:46;;;;;;;6.33;4.00;;;;;19.80;97440.00;;;;4996824;28;20222;-88
2023/07/07 06:41:36;;;;;;;6.50;3.87;;;;;19.70;97436.00;;;;4995580;28;20203;-88
2023/07/07 06:44:25;;;;;;;5.40;3.97;;;;;19.60;97444.00;;;;4997073;28;20203;-88
2023/07/07 06:47:17;;;;;;;5.00;4.30;;;;;19.50;97436.00;;;;4994328;28;20230;-88
2023/07/07 06:50:07;;;;;;;6.40;3.53;;;;;19.40;97448.00;;;;4993265;28;20234;-87
2023/07/07 06:52:57;;;;;;;6.30;3.90;;;;;19.20;97451.00;;;;4986852;28;20214;-88
2023/07/07 06:55:47;;;;;;;5.10;4.60;;;;;19.50;97451.00;;;;4991080;28;20202;-86
2023/07/07 06:58:36;;;;;;;6.10;4.57;;;;;19.60;97446.00;;;;4989498;28;20221;-88
2023/07/07 07:01:25;;;;;;;6.20;5.43;;;;;19.90;97443.00;;;;4984558;28;20889;-87
2023/07/07 07:04:14;;;;;;;6.40;5.27;;;;;19.80;97442.00;;;;4981885;28;20813;-88
2023/07/07 07:07:04;;;;;;;6.93;6.07;;;;;19.60;97442.00;;;;4995204;28;20230;-88
2023/07/07 07:09:53;;;;;;;7.20;6.30;;;;;19.90;97450.00;;;;4986323;28;20245;-87
2023/07/07 07:12:43;;;;;;;7.93;5.03;;;;;20.20;97454.00;;;;4989420;28;20611;-87
2023/07/07 07:15:32;;;;;;;9.43;6.53;;;;;20.40;97457.00;;;;4988707;28;20280;-87
2023/07/07 07:18:21;;;;;;;6.17;5.10;;;;;20.40;97450.00;;;;4988961;28;20195;-87
2023/07/07 07:21:11;;;;;;;6.10;5.50;;;;;20.10;97454.00;;;;4989032;28;20708;-87
2023/07/07 07:24:00;;;;;;;5.23;4.53;;;;;20.30;97456.00;;;;4990667;28;20210;-87
2023/07/07 07:26:49;;;;;;;8.23;5.03;;;;;20.40;97456.00;;;;4987522;28;20215;-87
2023/07/07 07:29:39;;;;;;;10.13;6.00;;;;;20.40;97463.00;;;;4987041;28;20226;-87
2023/07/07 07:32:28;;;;;;;7.80;5.63;;;;;20.50;97468.00;;;;4980943;28;20211;-86
2023/07/07 07:35:18;;;;;;;5.10;4.57;;;;;20.50;97467.00;;;;4980075;28;20238;-86
2023/07/07 07:38:08;;;;;;;5.67;4.67;;;;;20.70;97469.00;;;;4989366;28;20199;-85
2023/07/07 07:40:57;;;;;;;6.83;5.07;;;;;20.50;97462.00;;;;4982074;28;20589;-86
2023/07/07 07:43:46;;;;;;;7.50;4.80;;;;;20.40;97468.00;;;;4988000;28;20202;-86
2023/07/07 07:46:37;;;;;;;5.20;4.43;;;;;20.40;97464.00;;;;4987875;28;20233;-85
2023/07/07 07:49:27;;;;;;;5.17;4.63;;;;;20.60;97467.00;;;;4990976;28;20234;-85
2023/07/07 07:52:18;;;;;;;5.47;4.37;;;;;20.90;97467.00;;;;5000463;28;20188;-85
2023/07/07 07:55:08;;;;;;;6.43;4.90;;;;;20.80;97470.00;;;;5004992;28;20397;-87
2023/07/07 07:57:57;;;;;;;7.38;5.45;;;;;20.90;97467.00;;;;4997162;28;20789;-87
2023/07/07 08:00:46;;;;;;;6.50;5.18;;;;;21.10;97473.00;;;;4990064;28;20410;-87
2023/07/07 08:03:36;;;;;;;5.93;5.03;;;;;21.60;97478.00;;;;4985985;28;20210;-86
2023/07/07 08:06:25;;;;;;;14.27;4.90;;;;;21.90;97478.00;;;;4993796;28;20209;-86
2023/07/07 08:09:14;;;;;;;9.60;4.63;;;;;22.00;97489.00;;;;4989977;28;20237;-85
2023/07/07 08:12:04;;;;;;;10.90;4.90;;;;;22.10;97491.00;;;;4974787;28;20207;-85
2023/07/07 08:14:53;;;;;;;6.60;4.70;;;;;22.40;97494.00;;;;4991234;28;20694;-85
2023/07/07 08:17:42;;;;;;;10.03;6.10;;;;;22.60;97488.00;;;;4987178;28;20651;-85
2023/07/07 08:20:32;;;;;;;8.27;5.30;;;;;22.70;97490.00;;;;4990465;28;20576;-86
2023/07/07 08:23:21;;;;;;;5.67;4.43;;;;;22.70;97492.00;;;;4991306;28;20249;-86
2023/07/07 08:26:11;;;;;;;6.80;4.93;;;;;22.90;97489.00;;;;4996303;28;20202;-85
2023/07/07 08:29:04;;;;;;;5.40;4.77;;;;;23.00;97489.00;;;;4991748;28;20238;-85
2023/07/07 08:31:54;;;;;;;5.67;4.80;;;;;23.10;97495.00;;;;4993847;28;20590;-86
2023/07/07 08:34:43;;;;;;;6.07;4.73;;;;;23.20;97495.00;;;;4991937;28;20841;-86
2023/07/07 08:37:38;;;;;;;5.30;4.70;;;;;23.10;97492.00;;;;4991640;28;20871;-86
2023/07/07 08:40:35;;;;;;;4.77;4.37;;;;;23.10;97492.00;;;;4990287;28;20595;-86
2023/07/07 08:43:28;;;;;;;9.10;4.30;;;;;23.60;97495.00;;;;4991423;28;20268;-86
2023/07/07 08:46:23;;;;;;;7.83;4.73;;;;;23.90;97493.00;;;;4986307;28;20202;-86
2023/07/07 08:49:16;;;;;;;5.17;3.63;;;;;24.00;97490.00;;;;4988500;28;20284;-86
2023/07/07 08:52:13;;;;;;;5.97;4.97;;;;;24.00;97482.00;;;;4991960;28;20210;-88
2023/07/07 08:55:11;;;;;;;5.90;4.00;;;;;24.40;97487.00;;;;4991761;28;20214;-87
2023/07/07 08:58:04;;;;;;;5.33;4.33;;;;;24.60;97486.00;;;;4991624;28;20241;-86
2023/07/07 09:01:02;;;;;;;7.17;4.20;;;;;24.60;97482.00;;;;4990030;28;20229;-89
2023/07/07 09:04:02;;;;;;;6.77;5.20;;;;;24.40;97487.00;;;;4989638;28;20199;-87
2023/07/07 09:07:14;;;;;;;7.10;4.37;;;;;24.90;97479.00;;;;4980593;28;20207;-87
2023/07/07 09:10:16;;;;;;;4.25;3.55;;;;;25.20;97485.00;;;;4983308;28;20238;-87
2023/07/07 09:13:08;;;;;;;6.20;3.60;;;;;24.80;97476.00;;;;4987824;28;20258;-87
2023/07/07 09:16:03;;;;;;;4.70;3.63;;;;;25.40;97473.00;;;;4989099;28;20256;-87
2023/07/07 09:18:54;;;;;;;6.03;3.20;;;;;25.70;97483.00;;;;4990828;28;20248;-87
2023/07/07 09:21:46;;;;;;;6.30;3.53;;;;;25.60;97489.00;;;;4989711;28;20233;-86
2023/07/07 09:24:39;;;;;;;7.47;3.87;;;;;25.80;97485.00;;;;4988724;28;20214;-86
2023/07/07 09:27:33;;;;;;;7.07;3.40;;;;;25.60;97490.00;;;;4989795;28;20211;-86
2023/07/07 09:30:26;;;;;;;4.80;3.40;;;;;24.90;97491.00;;;;4990356;28;20515;-87
2023/07/07 09:33:18;;;;;;;6.83;4.07;;;;;25.60;97490.00;;;;4990002;28;20210;-87
2023/07/07 09:36:19;;;;;;;5.83;3.63;;;;;25.10;97478.00;;;;4988496;28;20583;-87
2023/07/07 09:39:29;;;;;;;4.37;3.23;;;;;24.90;97486.00;;;;4986335;28;20608;-87
2023/07/07 09:42:37;;;;;;;4.63;3.70;;;;;24.70;97473.00;;;;4989232;28;20206;-89
2023/07/07 09:45:34;;;;;;;3.67;3.17;;;;;24.70;97473.00;;;;4986222;28;20211;-89
2023/07/07 09:48:29;;;;;;;4.03;2.93;;;;;25.00;97480.00;;;;4990037;28;20245;-89
2023/07/07 09:51:29;;;;;;;4.90;3.37;;;;;24.80;97481.00;;;;4989721;28;20678;-85
2023/07/07 09:54:19;;;;;;;4.97;3.23;;;;;25.50;97465.00;;;;4980860;28;20218;-85
2023/07/07 09:57:14;;;;;;;3.80;3.20;;;;;26.20;97466.00;;;;4987072;28;20696;-83
2023/07/07 10:00:05;;;;;;;3.50;2.90;;;;;26.80;97464.00;;;;4989309;28;20246;-85
2023/07/07 10:02:55;;;;;;;4.23;3.03;;;;;26.20;97468.00;;;;4985592;28;20202;-86
2023/07/07 10:05:45;;;;;;;3.23;2.73;;;;;25.40;97455.00;;;;4990793;28;20207;-86
2023/07/07 10:08:36;;;;;;;3.97;2.73;;;;;25.60;97451.00;;;;4987392;28;20234;-85
2023/07/07 10:11:27;;;;;;;4.00;2.40;;;;;25.20;97443.00;;;;4986855;28;20206;-87
2023/07/07 10:14:19;;;;;;;3.33;2.50;;;;;25.40;97447.00;;;;4989294;28;20209;-85
2023/07/07 10:17:21;;;;;;;4.17;3.10;;;;;26.00;97455.00;;;;4992410;28;20199;-86
2023/07/07 10:20:10;;;;;;;4.17;2.97;;;;;26.00;97457.00;;;;4984850;28;20689;-85
2023/07/07 10:22:59;;;;;;;5.10;2.90;;;;;26.00;97459.00;;;;4987685;28;20229;-85
2023/07/07 10:25:48;;;;;;;3.70;2.83;;;;;25.90;97447.00;;;;4989683;28;20599;-84
2023/07/07 10:28:38;;;;;;;5.03;3.60;;;;;25.30;97448.00;;;;4989657;28;20226;-91
2023/07/07 10:31:28;;;;;;;6.53;3.83;;;;;25.70;97441.00;;;;4983425;28;20203;-91
2023/07/07 10:34:27;;;;;;;3.83;2.93;;;;;26.00;97443.00;;;;4990637;28;20312;-91
2023/07/07 10:37:19;;;;;;;2.80;2.60;;;;;25.60;97454.00;;;;4987963;28;20268;-83
2023/07/07 10:40:21;;;;;;;5.07;3.43;;;;;25.40;97434.00;;;;4983777;28;20219;-85
2023/07/07 10:43:12;;;;;;;5.50;3.37;;;;;26.40;97458.00;;;;4986740;28;20214;-84
2023/07/07 10:46:02;;;;;;;5.67;3.30;;;;;26.10;97453.00;;;;4977026;28;20214;-88
2023/07/07 10:48:52;;;;;;;3.97;3.13;;;;;25.80;97421.00;;;;4989439;28;20222;-85
2023/07/07 10:51:51;;;;;;;4.30;3.10;;;;;27.10;97408.00;;;;4985480;28;20205;-86
2023/07/07 10:54:48;;;;;;;4.97;2.77;;;;;27.50;97418.00;;;;4987211;28;20214;-85
2023/07/07 10:57:45;;;;;;;6.23;5.63;;;;;27.60;97407.00;;;;4982871;28;20198;-88
2023/07/07 11:00:44;;;;;;;7.00;4.70;;;;;27.80;97407.00;;;;4986898;28;20214;-87
2023/07/07 11:03:59;;;;;;;9.83;8.83;;;;;28.30;97430.00;;;;4985884;28;20680;-88
2023/07/07 11:06:59;;;;;;;7.30;4.30;;;;;28.00;97406.00;;;;4981693;28;20212;-85
2023/07/07 11:10:03;;;;;;;4.23;3.17;;;;;28.00;97406.00;;;;4986634;28;20680;-86
2023/07/07 11:13:01;;;;;;;4.40;3.63;;;;;27.50;97399.00;;;;4986641;28;20215;-85
2023/07/07 11:15:55;;;;;;;4.30;3.17;;;;;28.00;97401.00;;;;4988051;28;20208;-91
2023/07/07 11:18:59;;;;;;;4.03;2.80;;;;;27.50;97403.00;;;;4988280;28;20232;-87
2023/07/07 11:21:58;;;;;;;3.57;3.00;;;;;28.10;97401.00;;;;4986307;28;20214;-86
2023/07/07 11:24:50;;;;;;;6.47;5.20;;;;;28.70;97393.00;;;;4984415;28;20680;-86
2023/07/07 11:28:03;;;;;;;5.13;4.23;;;;;28.60;97388.00;;;;4985493;28;20569;-87
2023/07/07 11:30:56;;;;;;;5.87;5.27;;;;;29.20;97388.00;;;;4987034;28;20206;-87
2023/07/07 11:33:52;;;;;;;11.17;8.47;;;;;28.70;97382.00;;;;4987280;28;20206;-87
2023/07/07 11:36:53;;;;;;;6.17;4.57;;;;;28.90;97389.00;;;;4989123;28;20213;-86
2023/07/07 11:39:57;;;;;;;4.70;3.37;;;;;28.60;97384.00;;;;4996763;28;20504;-87
2023/07/07 11:43:07;;;;;;;5.73;3.47;;;;;28.70;97376.00;;;;4993235;28;20210;-87
2023/07/07 11:46:22;;;;;;;6.57;3.90;;;;;30.60;97396.00;;;;4988498;28;20210;-87
2023/07/07 11:49:27;;;;;;;5.43;3.17;;;;;32.10;97394.00;;;;4991450;28;20634;-86
2023/07/07 11:52:30;;;;;;;6.27;3.70;;;;;32.30;97384.00;;;;4988773;28;20212;-87
2023/07/07 11:55:40;;;;;;;10.10;7.20;;;;;33.30;97390.00;;;;4990086;28;20209;-86
2023/07/07 11:58:37;;;;;;;6.00;3.20;;;;;32.60;97387.00;;;;4987800;28;20633;-86
2023/07/07 12:01:31;;;;;;;4.70;3.67;;;;;34.00;97389.00;;;;4986564;28;20217;-87
2023/07/07 12:04:25;;;;;;;5.40;4.07;;;;;34.30;97382.00;;;;4993050;28;20675;-87
2023/07/07 12:07:16;;;;;;;4.25;3.30;;;;;34.10;97375.00;;;;4989015;28;20268;-86
2023/07/07 12:10:13;;;;;;;3.95;3.30;;;;;34.60;97373.00;;;;4990150;28;20222;-87
2023/07/07 12:13:08;;;;;;;4.07;3.55;;;;;35.20;97378.00;;;;4993048;28;20274;-87
2023/07/07 12:16:06;;;;;;;6.03;4.80;;;;;35.30;97376.00;;;;4987335;28;20227;-87
2023/07/07 12:19:08;;;;;;;4.25;3.17;;;;;33.80;97373.00;;;;4988669;28;20227;-87
2023/07/07 12:21:58;;;;;;;5.93;2.92;;;;;35.00;97362.00;;;;4989382;28;20209;-87
2023/07/07 12:24:52;;;;;;;5.47;3.35;;;;;35.10;97366.00;;;;4988385;28;20214;-88
2023/07/07 12:27:43;;;;;;;6.22;3.13;;;;;34.70;97358.00;;;;4991503;28;20209;-87
2023/07/07 12:30:37;;;;;;;5.97;3.40;;;;;34.90;97366.00;;;;4986249;28;20586;-86
2023/07/07 12:33:26;;;;;;;5.30;3.58;;;;;36.00;97360.00;;;;4987431;28;20213;-87
2023/07/07 12:36:16;;;;;;;3.40;2.90;;;;;36.70;97354.00;;;;4991395;28;20536;-87
2023/07/07 12:39:07;;;;;;;4.90;3.22;;;;;36.70;97357.00;;;;4990812;28;20220;-85
2023/07/07 12:41:58;;;;;;;3.75;2.92;;;;;34.70;97362.00;;;;4990665;28;20237;-85
2023/07/07 12:44:47;;;;;;;3.97;3.20;;;;;36.10;97365.00;;;;4993029;28;20199;-85
2023/07/07 12:47:41;;;;;;;5.63;3.92;;;;;36.70;97358.00;;;;4990934;28;20666;-85
2023/07/07 12:50:32;;;;;;;4.18;3.78;;;;;37.30;97353.00;;;;4988384;28;20195;-88
2023/07/07 12:53:27;;;;;;;3.20;2.72;;;;;37.00;97351.00;;;;4989705;28;20222;-86
2023/07/07 12:56:19;;;;;;;25.08;18.10;;;;;37.60;97356.00;;;;4987999;28;20202;-86
2023/07/07 12:59:36;;;;;;;7.93;6.55;;;;;37.40;97352.00;;;;4988604;28;20257;-88
2023/07/07 13:02:26;;;;;;;13.25;10.45;;;;;38.20;97354.00;;;;4991574;28;20602;-88
2023/07/07 13:05:23;;;;;;;4.28;3.88;;;;;36.90;97359.00;;;;4989730;28;20203;-89
2023/07/07 13:08:12;;;;;;;7.55;4.90;;;;;34.20;97352.00;;;;4986232;28;20202;-87
2023/07/07 13:11:04;;;;;;;4.03;3.60;;;;;35.20;97357.00;;;;4987407;28;20209;-89
2023/07/07 13:13:55;;;;;;;9.60;8.35;;;;;36.80;97352.00;;;;4989587;28;20622;-88
2023/07/07 13:16:45;;;;;;;5.10;3.97;;;;;37.00;97351.00;;;;4989094;28;20218;-88
2023/07/07 13:19:35;;;;;;;7.13;5.57;;;;;37.60;97360.00;;;;4991875;28;20733;-87
2023/07/07 13:22:36;;;;;;;6.90;5.85;;;;;38.20;97358.00;;;;4992561;28;20221;-88
2023/07/07 13:25:30;;;;;;;5.07;4.47;;;;;37.80;97353.00;;;;4989177;28;20285;-88
2023/07/07 13:28:23;;;;;;;3.53;3.17;;;;;37.00;97347.00;;;;4989336;28;20214;-88
2023/07/07 13:31:16;;;;;;;10.88;7.53;;;;;37.40;97339.00;;;;4982398;28;20191;-88
2023/07/07 13:34:06;;;;;;;5.10;3.55;;;;;36.70;97350.00;;;;4991291;28;20718;-88
2023/07/07 13:36:55;;;;;;;11.00;4.28;;;;;38.10;97371.00;;;;4988544;28;20257;-87
2023/07/07 13:39:46;;;;;;;4.60;3.80;;;;;37.70;97354.00;;;;4986378;28;20768;-87
2023/07/07 13:42:37;;;;;;;9.20;6.97;;;;;38.50;97351.00;;;;4989351;28;20213;-88
2023/07/07 13:45:26;;;;;;;12.45;7.25;;;;;38.20;97353.00;;;;4990720;28;20566;-88
2023/07/07 13:48:19;;;;;;;7.07;5.53;;;;;38.60;97354.00;;;;4985382;28;20210;-89
2023/07/07 13:51:13;;;;;;;8.27;4.90;;;;;38.60;97350.00;;;;4992288;28;20206;-90
2023/07/07 13:54:04;;;;;;;5.28;4.75;;;;;35.10;97349.00;;;;4990018;28;20214;-89
2023/07/07 13:57:00;;;;;;;6.32;3.85;;;;;33.70;97347.00;;;;4993527;28;20701;-88
2023/07/07 13:59:50;;;;;;;4.47;3.78;;;;;33.90;97352.00;;;;4988346;28;20235;-89
2023/07/07 14:02:43;;;;;;;5.93;4.10;;;;;35.50;97351.00;;;;4990818;28;20207;-87
2023/07/07 14:05:37;;;;;;;11.05;6.07;;;;;36.50;97347.00;;;;4986361;28;20199;-87
2023/07/07 14:08:27;;;;;;;4.32;3.90;;;;;36.20;97351.00;;;;4990111;28;20226;-89
2023/07/07 14:11:20;;;;;;;3.78;3.47;;;;;34.70;97348.00;;;;4989806;28;20326;-89
2023/07/07 14:14:14;;;;;;;4.50;3.60;;;;;35.20;97348.00;;;;4989218;28;20214;-89
2023/07/07 14:17:07;;;;;;;4.50;3.28;;;;;33.20;97343.00;;;;4990807;28;20257;-88
2023/07/07 14:20:00;;;;;;;9.82;4.80;;;;;33.80;97354.00;;;;4991098;28;20583;-89
2023/07/07 14:22:49;;;;;;;5.28;4.55;;;;;32.70;97330.00;;;;4984725;28;20202;-88